Time;durP1;ratioP1;P1;durP2;ratioP2;P2;SDS_P1;SDS_P2;PMS_P1;PMS_P2;Temp;Humidity;BMP_temperature;BMP_pressure;BME280_temperature;BME280_humidity;BME280_pressure;Samples;Min_cycle;Max_cycle;Signal;HPM_P1;HPM_P2
2022/06/17 00:01:31;;;;;;;18.88;2.70;;;42.70;16.20;;;;;;4993533;28;20493;-62
2022/06/17 00:03:57;;;;;;;12.70;2.50;;;42.60;16.10;;;;;;4992736;28;20106;-63
2022/06/17 00:06:29;;;;;;;13.32;2.30;;;42.60;15.80;;;;;;4992448;28;20032;-61
2022/06/17 00:08:56;;;;;;;54.33;4.68;;;42.50;16.80;;;;;;5023783;28;20126;-63
2022/06/17 00:11:31;;;;;;;18.70;2.72;;;42.50;16.40;;;;;;5006205;28;20528;-63
2022/06/17 00:13:58;;;;;;;19.98;2.38;;;42.40;16.30;;;;;;4991974;28;20484;-62
2022/06/17 00:16:26;;;;;;;32.85;3.47;;;42.50;16.30;;;;;;4991112;28;20180;-62
2022/06/17 00:18:53;;;;;;;23.60;2.78;;;42.40;16.00;;;;;;4991194;28;20037;-63
2022/06/17 00:21:38;;;;;;;17.58;2.78;;;42.30;15.90;;;;;;5005391;28;20034;-63
2022/06/17 00:24:16;;;;;;;15.75;2.60;;;42.20;16.00;;;;;;5006691;28;20550;-63
2022/06/17 00:26:43;;;;;;;20.30;2.80;;;42.10;16.20;;;;;;5008157;28;20172;-64
2022/06/17 00:29:16;;;;;;;27.08;2.50;;;42.00;16.60;;;;;;4990119;28;20042;-63
2022/06/17 00:31:42;;;;;;;15.77;2.30;;;42.00;16.50;;;;;;5006129;28;20031;-62
2022/06/17 00:34:09;;;;;;;17.38;2.20;;;41.90;16.10;;;;;;5006374;28;20482;-62
2022/06/17 00:36:36;;;;;;;15.38;2.05;;;41.90;16.10;;;;;;4991672;28;20532;-62
2022/06/17 00:39:03;;;;;;;13.00;2.50;;;41.90;16.40;;;;;;5006431;28;20025;-62
2022/06/17 00:41:41;;;;;;;12.77;2.30;;;41.80;16.00;;;;;;5007212;28;20050;-62
2022/06/17 00:44:46;;;;;;;12.45;2.15;;;41.70;16.10;;;;;;5007191;28;20042;-62
2022/06/17 00:47:25;;;;;;;10.63;2.20;;;41.80;15.70;;;;;;5019740;28;20022;-61
2022/06/17 00:50:06;;;;;;;12.73;1.75;;;41.70;16.10;;;;;;4990973;28;20040;-61
2022/06/17 00:52:41;;;;;;;20.63;2.28;;;41.60;15.60;;;;;;4991051;28;20051;-61
2022/06/17 00:55:40;;;;;;;22.02;2.50;;;41.50;16.10;;;;;;5022182;28;20034;-61
2022/06/17 00:58:26;;;;;;;9.85;2.40;;;41.50;15.40;;;;;;5005221;28;20027;-61
2022/06/17 01:00:55;;;;;;;16.23;2.03;;;41.30;15.30;;;;;;4991768;28;20385;-61
2022/06/17 01:03:34;;;;;;;11.15;2.22;;;41.30;15.30;;;;;;5010522;28;20138;-63
2022/06/17 01:06:16;;;;;;;17.80;1.95;;;41.40;15.50;;;;;;5005585;28;20033;-61
2022/06/17 01:11:43;;;;;;;11.60;2.58;;;41.20;15.10;;;;;;4991418;28;20591;-62
2022/06/17 01:14:14;;;;;;;11.80;1.80;;;41.00;15.00;;;;;;5011060;28;20034;-62
2022/06/17 01:16:43;;;;;;;23.83;2.97;;;41.00;14.90;;;;;;5021453;28;20035;-60
2022/06/17 01:19:28;;;;;;;22.77;3.22;;;40.90;15.00;;;;;;5006277;28;20089;-60
2022/06/17 01:22:18;;;;;;;14.38;2.20;;;40.70;15.10;;;;;;5004591;28;20093;-62
2022/06/17 01:24:46;;;;;;;12.45;2.20;;;40.70;15.20;;;;;;4988584;28;20162;-59
2022/06/17 01:27:19;;;;;;;13.57;2.03;;;40.60;15.40;;;;;;4989354;28;20043;-61
2022/06/17 01:29:46;;;;;;;18.65;2.20;;;40.50;15.80;;;;;;4988572;28;20104;-62
2022/06/17 01:32:14;;;;;;;13.68;1.60;;;40.40;15.60;;;;;;5003758;28;20410;-63
2022/06/17 01:34:41;;;;;;;22.38;3.17;;;40.20;14.90;;;;;;5006118;28;20395;-62
2022/06/17 01:37:09;;;;;;;14.95;2.47;;;40.10;15.30;;;;;;5005366;28;20082;-60
2022/06/17 01:39:36;;;;;;;22.85;2.63;;;40.10;15.30;;;;;;5004552;28;20041;-62
2022/06/17 01:42:04;;;;;;;16.52;2.42;;;40.00;15.30;;;;;;4989529;28;20479;-61
2022/06/17 01:44:33;;;;;;;19.98;2.13;;;39.90;15.80;;;;;;5005126;28;20137;-62
2022/06/17 01:47:04;;;;;;;19.27;2.40;;;39.80;16.30;;;;;;5004772;28;20081;-61
2022/06/17 01:49:37;;;;;;;17.55;2.33;;;39.80;16.30;;;;;;5004006;28;20044;-61
2022/06/17 01:52:19;;;;;;;17.10;2.42;;;39.70;17.10;;;;;;4989886;28;20038;-61
2022/06/17 01:55:00;;;;;;;18.58;2.65;;;39.60;17.20;;;;;;5006513;28;20063;-62
2022/06/17 01:57:53;;;;;;;23.05;3.15;;;39.50;17.10;;;;;;5003167;28;20407;-62
2022/06/17 02:00:23;;;;;;;23.08;3.03;;;39.40;17.60;;;;;;4988355;28;20078;-63
2022/06/17 02:02:54;;;;;;;19.27;3.00;;;39.30;17.20;;;;;;5020118;28;20130;-61
2022/06/17 02:05:23;;;;;;;19.67;3.05;;;39.20;17.30;;;;;;5010987;28;20043;-61
2022/06/17 02:07:59;;;;;;;24.40;3.08;;;39.10;17.40;;;;;;5018542;28;20051;-61
2022/06/17 02:10:40;;;;;;;17.42;3.10;;;39.00;17.70;;;;;;5004887;28;20039;-61
2022/06/17 02:13:09;;;;;;;27.63;2.22;;;39.00;17.50;;;;;;5005183;28;20097;-62
2022/06/17 02:15:36;;;;;;;22.77;2.60;;;38.80;17.50;;;;;;5003810;28;20046;-67
2022/06/17 02:18:10;;;;;;;20.70;2.58;;;38.70;16.80;;;;;;5004804;28;20126;-61
2022/06/17 02:20:38;;;;;;;24.15;2.42;;;38.60;17.40;;;;;;5005291;28;20395;-62
2022/06/17 02:23:05;;;;;;;22.08;2.40;;;38.60;17.90;;;;;;4990241;28;20061;-64
2022/06/17 02:25:42;;;;;;;18.13;2.50;;;38.50;18.10;;;;;;4987371;28;20069;-61
2022/06/17 02:28:10;;;;;;;24.77;2.65;;;38.40;17.80;;;;;;5017855;28;20420;-62
2022/06/17 02:30:37;;;;;;;30.38;3.55;;;38.30;17.90;;;;;;4988540;28;20044;-62
2022/06/17 02:36:01;;;;;;;30.52;3.20;;;38.20;18.00;;;;;;5126873;23;20097;-65
2022/06/17 02:38:32;;;;;;;20.30;2.90;;;38.00;18.10;;;;;;5008607;28;20043;-67
2022/06/17 02:41:07;;;;;;;13.88;2.70;;;38.00;18.30;;;;;;5008163;28;20190;-66
2022/06/17 02:43:42;;;;;;;18.67;2.80;;;37.90;18.20;;;;;;5007425;28;20084;-61
2022/06/17 02:46:16;;;;;;;15.63;3.23;;;38.00;17.90;;;;;;5023780;28;20071;-61
2022/06/17 02:48:59;;;;;;;15.43;2.63;;;38.10;17.00;;;;;;5003095;28;20052;-61
2022/06/17 02:51:29;;;;;;;23.25;2.95;;;38.30;16.90;;;;;;4983337;28;20069;-60
2022/06/17 02:53:58;;;;;;;21.52;3.35;;;38.30;16.30;;;;;;4986919;28;20553;-60
2022/06/17 02:56:27;;;;;;;20.70;3.40;;;38.40;16.40;;;;;;5007685;28;20549;-61
2022/06/17 02:59:09;;;;;;;18.65;2.97;;;38.30;16.80;;;;;;5003065;28;20402;-58
2022/06/17 03:01:38;;;;;;;19.25;3.58;;;38.20;17.30;;;;;;5007537;28;20085;-58
2022/06/17 03:04:17;;;;;;;28.88;3.92;;;38.10;17.80;;;;;;5023818;28;20469;-59
2022/06/17 03:06:46;;;;;;;18.65;4.00;;;38.00;17.90;;;;;;5004613;28;20046;-59
2022/06/17 03:09:25;;;;;;;29.73;4.03;;;37.80;18.10;;;;;;4987902;28;20046;-56
2022/06/17 03:12:02;;;;;;;25.00;4.53;;;37.60;17.90;;;;;;5020620;28;20074;-60
2022/06/17 03:14:35;;;;;;;80.30;8.85;;;37.70;17.80;;;;;;5010023;28;20062;-60
2022/06/17 03:17:05;;;;;;;17.30;3.88;;;37.60;18.50;;;;;;5012091;28;20138;-59
2022/06/17 03:19:35;;;;;;;33.20;4.70;;;37.60;17.40;;;;;;5012043;28;20135;-59
2022/06/17 03:22:07;;;;;;;31.33;3.67;;;37.40;17.60;;;;;;5010900;28;20065;-60
2022/06/17 03:24:48;;;;;;;30.13;3.40;;;37.40;17.60;;;;;;5027385;28;20094;-60
2022/06/17 03:27:34;;;;;;;40.60;4.43;;;37.40;16.40;;;;;;4994925;28;20059;-59
2022/06/17 03:30:03;;;;;;;35.80;3.83;;;37.40;16.80;;;;;;5011074;28;20052;-59
2022/06/17 03:32:35;;;;;;;32.17;3.65;;;37.30;16.40;;;;;;5012531;28;20065;-59
2022/06/17 03:35:03;;;;;;;31.35;3.10;;;37.30;16.80;;;;;;5014790;28;20084;-60
2022/06/17 03:37:51;;;;;;;36.55;4.03;;;37.10;16.90;;;;;;5020639;28;20455;-60
2022/06/17 03:40:34;;;;;;;37.45;4.03;;;36.90;17.10;;;;;;5026902;28;20051;-59
2022/06/17 03:43:10;;;;;;;46.28;5.18;;;36.80;17.20;;;;;;5014076;28;20133;-60
2022/06/17 03:45:55;;;;;;;42.83;4.85;;;36.70;17.60;;;;;;5017519;28;20528;-61
2022/06/17 03:48:34;;;;;;;46.30;5.07;;;36.70;17.50;;;;;;5016966;28;20575;-58
2022/06/17 03:51:01;;;;;;;48.80;5.57;;;36.70;18.10;;;;;;5016317;28;20546;-57
2022/06/17 03:53:34;;;;;;;39.42;5.43;;;36.50;17.90;;;;;;5014439;28;20401;-61
2022/06/17 03:56:06;;;;;;;54.80;6.60;;;36.40;17.90;;;;;;5013759;28;20374;-57
2022/06/17 03:58:33;;;;;;;37.78;5.78;;;36.30;18.20;;;;;;5033442;28;20078;-58
2022/06/17 04:01:11;;;;;;;36.80;6.18;;;36.20;18.60;;;;;;5014892;28;20043;-61
2022/06/17 04:03:40;;;;;;;45.28;7.05;;;36.20;19.10;;;;;;5013229;28;20086;-58
2022/06/17 04:06:13;;;;;;;41.85;7.38;;;36.20;18.80;;;;;;5026276;28;20054;-59
2022/06/17 04:09:00;;;;;;;49.40;7.50;;;36.00;18.80;;;;;;5030249;28;20054;-62
2022/06/17 04:11:32;;;;;;;52.97;7.88;;;35.90;18.80;;;;;;5015870;28;20135;-56
2022/06/17 04:14:01;;;;;;;41.88;8.15;;;35.90;19.60;;;;;;5015517;28;20431;-57
2022/06/17 04:16:41;;;;;;;49.38;8.32;;;35.90;20.60;;;;;;5016848;28;20507;-57
2022/06/17 04:19:21;;;;;;;58.92;8.80;;;35.70;20.50;;;;;;5010514;28;20078;-57
2022/06/17 04:21:48;;;;;;;44.10;8.23;;;35.60;20.20;;;;;;5036507;28;20515;-57
2022/06/17 04:24:19;;;;;;;55.15;8.68;;;35.50;20.70;;;;;;5019917;28;20610;-59
2022/06/17 04:26:49;;;;;;;44.38;6.53;;;35.40;20.50;;;;;;5008040;28;20056;-58
2022/06/17 04:29:19;;;;;;;47.33;6.88;;;35.30;21.10;;;;;;5013405;28;20104;-59
2022/06/17 04:31:53;;;;;;;31.20;6.30;;;35.20;21.40;;;;;;5037507;28;20053;-55
2022/06/17 04:34:20;;;;;;;42.67;6.38;;;35.10;21.90;;;;;;5010938;28;20094;-56
2022/06/17 04:37:00;;;;;;;36.15;6.40;;;35.00;21.90;;;;;;5017755;28;20110;-59
2022/06/17 04:39:48;;;;;;;31.98;5.72;;;34.90;22.40;;;;;;5023078;28;20053;-59
2022/06/17 04:42:17;;;;;;;42.58;6.70;;;34.70;21.90;;;;;;5027278;28;20064;-58
2022/06/17 04:44:44;;;;;;;26.92;6.35;;;34.80;23.00;;;;;;4999453;28;20516;-61
2022/06/17 04:47:17;;;;;;;49.63;7.70;;;34.70;22.30;;;;;;5015427;28;20070;-61
2022/06/17 04:49:56;;;;;;;38.05;6.75;;;34.70;23.10;;;;;;5014586;28;20240;-57
2022/06/17 04:52:41;;;;;;;40.00;6.18;;;34.60;22.40;;;;;;5030427;28;20050;-58
2022/06/17 04:55:15;;;;;;;51.33;6.72;;;34.60;22.50;;;;;;5014674;28;20535;-61
2022/06/17 04:57:42;;;;;;;34.03;6.35;;;34.40;23.60;;;;;;5030618;28;20068;-60
2022/06/17 05:00:20;;;;;;;39.95;7.18;;;34.30;23.50;;;;;;5033604;28;20060;-61
2022/06/17 05:02:47;;;;;;;39.92;5.95;;;34.20;23.80;;;;;;5031762;28;20074;-56
2022/06/17 05:05:35;;;;;;;40.90;6.82;;;34.20;23.90;;;;;;5015178;28;20151;-58
2022/06/17 05:08:06;;;;;;;39.08;5.88;;;34.20;23.90;;;;;;5030623;28;20129;-60
2022/06/17 05:10:39;;;;;;;37.10;5.57;;;34.20;23.90;;;;;;5019066;28;20121;-59
2022/06/17 05:13:19;;;;;;;32.95;5.50;;;34.10;24.20;;;;;;5016223;28;20417;-59
2022/06/17 05:15:45;;;;;;;33.83;5.57;;;33.90;23.80;;;;;;5014103;28;20091;-58
2022/06/17 05:18:12;;;;;;;42.03;5.93;;;33.90;24.50;;;;;;5028989;28;20061;-59
2022/06/17 05:20:38;;;;;;;60.50;6.15;;;33.90;24.50;;;;;;5029028;28;20505;-59
2022/06/17 05:23:10;;;;;;;35.85;6.05;;;33.80;24.40;;;;;;5032611;28;20073;-57
2022/06/17 05:25:39;;;;;;;44.65;5.65;;;33.80;24.50;;;;;;5017116;28;20069;-58
2022/06/17 05:28:07;;;;;;;26.15;5.38;;;33.70;24.80;;;;;;5030138;28;20449;-60
2022/06/17 05:30:39;;;;;;;31.77;5.53;;;33.70;24.70;;;;;;5016049;28;20090;-57
2022/06/17 05:33:06;;;;;;;25.88;4.30;;;33.60;25.50;;;;;;5031601;28;20071;-56
2022/06/17 05:35:32;;;;;;;31.13;4.70;;;33.60;25.50;;;;;;5004813;28;20108;-56
2022/06/17 05:37:59;;;;;;;37.50;5.22;;;33.50;25.20;;;;;;5012943;28;20200;-54
2022/06/17 05:40:26;;;;;;;28.73;4.00;;;33.50;24.50;;;;;;5019026;28;20069;-61
2022/06/17 05:42:53;;;;;;;22.60;5.13;;;33.40;24.80;;;;;;5030869;28;20066;-57
2022/06/17 05:45:26;;;;;;;28.83;5.20;;;33.40;24.70;;;;;;5031613;28;20067;-62
2022/06/17 05:47:53;;;;;;;18.02;4.20;;;33.30;25.00;;;;;;5014694;28;20125;-59
2022/06/17 05:50:21;;;;;;;37.28;18.80;;;33.30;25.20;;;;;;5018298;28;20118;-61
2022/06/17 05:53:08;;;;;;;33.03;6.55;;;33.20;25.40;;;;;;5016480;28;20719;-61
2022/06/17 05:55:36;;;;;;;46.92;14.57;;;33.10;24.80;;;;;;5035475;28;20150;-59
2022/06/17 05:58:04;;;;;;;26.10;6.80;;;33.00;24.60;;;;;;4996629;28;20081;-58
2022/06/17 06:00:32;;;;;;;26.35;6.30;;;33.00;24.30;;;;;;5030584;28;20179;-59
2022/06/17 06:03:03;;;;;;;29.77;5.03;;;32.80;24.70;;;;;;5028715;28;20139;-57
2022/06/17 06:05:32;;;;;;;31.23;4.82;;;32.80;25.20;;;;;;5013380;28;20071;-56
2022/06/17 06:07:58;;;;;;;24.50;4.22;;;32.70;24.60;;;;;;5021430;28;20093;-58
2022/06/17 06:10:25;;;;;;;27.15;4.80;;;32.50;25.40;;;;;;5021538;28;20122;-60
2022/06/17 06:12:57;;;;;;;27.60;3.72;;;32.50;25.70;;;;;;5041116;28;20081;-60
2022/06/17 06:15:30;;;;;;;25.15;4.25;;;32.30;25.40;;;;;;5037371;28;20232;-57
2022/06/17 06:17:59;;;;;;;25.00;4.25;;;32.30;26.40;;;;;;5020439;28;20085;-60
2022/06/17 06:20:26;;;;;;;24.17;4.10;;;32.30;26.70;;;;;;5024962;28;20072;-57
2022/06/17 06:22:52;;;;;;;23.17;4.38;;;32.30;27.00;;;;;;5022496;28;20071;-62
2022/06/17 06:25:19;;;;;;;16.13;3.50;;;32.30;27.00;;;;;;5037776;28;20075;-62
2022/06/17 06:27:45;;;;;;;33.60;4.38;;;32.20;27.10;;;;;;5021932;28;20148;-58
2022/06/17 06:30:25;;;;;;;17.38;4.07;;;32.30;26.90;;;;;;5022493;28;20101;-56
2022/06/17 06:33:00;;;;;;;36.13;4.72;;;32.20;27.20;;;;;;5035821;28;20067;-57
2022/06/17 06:35:35;;;;;;;26.02;4.40;;;32.10;27.30;;;;;;5018345;28;20109;-58
2022/06/17 06:38:03;;;;;;;28.67;4.10;;;32.00;26.50;;;;;;5037428;28;20082;-56
2022/06/17 06:40:30;;;;;;;37.65;4.50;;;31.90;26.90;;;;;;5036042;28;20453;-60
2022/06/17 06:42:58;;;;;;;38.97;4.55;;;31.90;26.60;;;;;;5019742;28;20076;-59
2022/06/17 06:45:30;;;;;;;30.55;4.43;;;31.90;26.40;;;;;;5036454;28;20165;-58
2022/06/17 06:48:00;;;;;;;33.60;4.00;;;31.80;27.20;;;;;;5021269;28;20502;-60
2022/06/17 06:50:30;;;;;;;23.95;4.07;;;31.90;26.80;;;;;;5018705;28;20079;-60
2022/06/17 06:52:56;;;;;;;17.85;3.65;;;31.70;26.80;;;;;;5035725;28;20073;-60
2022/06/17 06:55:23;;;;;;;18.58;3.60;;;31.60;27.10;;;;;;5021415;28;20170;-58
2022/06/17 06:57:52;;;;;;;22.17;3.97;;;31.50;27.20;;;;;;5034979;28;20065;-60
2022/06/17 07:00:29;;;;;;;22.48;3.65;;;31.50;27.10;;;;;;5019938;28;20122;-58
2022/06/17 07:02:56;;;;;;;17.02;3.78;;;31.40;27.90;;;;;;5021962;28;20075;-60
2022/06/17 07:05:23;;;;;;;25.25;3.58;;;31.40;27.90;;;;;;5020343;28;20113;-56
2022/06/17 07:07:49;;;;;;;165.13;13.40;;;31.40;27.60;;;;;;5037115;28;20132;-58
2022/06/17 07:10:23;;;;;;;67.82;6.22;;;31.40;28.10;;;;;;5021465;28;20068;-60
2022/06/17 07:12:50;;;;;;;28.00;3.50;;;31.20;27.70;;;;;;5019330;28;20134;-61
2022/06/17 07:15:17;;;;;;;31.73;3.58;;;31.20;28.10;;;;;;5020424;28;20895;-58
2022/06/17 07:18:03;;;;;;;23.40;3.30;;;31.20;27.00;;;;;;5025864;28;20069;-58
2022/06/17 07:20:36;;;;;;;24.17;3.58;;;31.20;26.50;;;;;;5017907;28;20075;-57
2022/06/17 07:23:08;;;;;;;21.77;3.20;;;31.20;26.20;;;;;;5018527;28;20096;-59
2022/06/17 07:25:35;;;;;;;19.02;2.95;;;31.20;27.00;;;;;;5040083;28;20081;-58
2022/06/17 07:28:03;;;;;;;17.92;3.45;;;31.10;26.90;;;;;;5022445;28;20071;-59
2022/06/17 07:30:30;;;;;;;16.65;2.60;;;30.90;27.40;;;;;;5035858;28;20108;-59
2022/06/17 07:32:57;;;;;;;15.35;3.78;;;30.70;26.70;;;;;;5019805;28;20073;-56
2022/06/17 07:35:24;;;;;;;20.85;3.40;;;30.80;26.30;;;;;;5021423;28;20203;-59
2022/06/17 07:40:36;;;;;;;14.27;2.80;;;30.80;26.30;;;;;;5020193;28;20445;-56
2022/06/17 07:43:03;;;;;;;15.88;3.13;;;30.70;27.00;;;;;;5002940;28;20168;-56
2022/06/17 07:45:32;;;;;;;10.35;2.55;;;30.70;26.20;;;;;;5008198;28;20082;-60
2022/06/17 07:47:59;;;;;;;17.42;3.08;;;30.70;26.00;;;;;;5018881;28;20081;-58
2022/06/17 07:50:29;;;;;;;15.38;2.60;;;30.70;26.00;;;;;;5037417;28;20073;-59
2022/06/17 07:52:56;;;;;;;22.58;2.60;;;30.70;26.60;;;;;;5019262;28;20104;-57
2022/06/17 07:55:23;;;;;;;18.00;2.28;;;30.70;26.90;;;;;;5035763;28;20097;-57
2022/06/17 07:57:50;;;;;;;21.50;3.10;;;30.70;27.20;;;;;;5037557;28;20127;-60
2022/06/17 08:00:41;;;;;;;22.63;3.20;;;30.60;27.00;;;;;;5037031;28;20072;-57
2022/06/17 08:03:07;;;;;;;20.40;3.08;;;30.60;26.50;;;;;;5008363;28;20077;-59
2022/06/17 08:05:35;;;;;;;19.58;3.58;;;30.60;26.40;;;;;;5024386;28;20077;-57
2022/06/17 08:08:04;;;;;;;19.52;3.15;;;30.50;26.00;;;;;;5022360;28;20104;-61
2022/06/17 08:10:33;;;;;;;22.15;2.97;;;30.40;26.30;;;;;;5023205;28;20596;-59
2022/06/17 08:13:00;;;;;;;17.17;3.20;;;30.30;26.00;;;;;;5026089;28;20526;-60
2022/06/17 08:15:27;;;;;;;19.30;2.97;;;30.30;26.70;;;;;;5039847;28;20480;-59
2022/06/17 08:17:53;;;;;;;32.95;3.47;;;30.20;26.90;;;;;;5007549;28;20521;-59
2022/06/17 08:20:23;;;;;;;30.45;3.53;;;30.10;26.70;;;;;;5039121;28;20077;-62
2022/06/17 08:22:50;;;;;;;22.80;2.97;;;30.10;27.60;;;;;;5006064;28;20079;-58
2022/06/17 08:25:17;;;;;;;29.08;4.05;;;29.90;27.90;;;;;;5023993;28;20731;-59
2022/06/17 08:27:52;;;;;;;22.25;3.38;;;29.80;27.30;;;;;;5039325;28;20087;-57
2022/06/17 08:30:21;;;;;;;23.50;3.53;;;29.80;27.20;;;;;;5024763;28;20108;-57
2022/06/17 08:32:51;;;;;;;26.90;3.58;;;29.70;27.10;;;;;;5026830;28;20081;-61
2022/06/17 08:35:30;;;;;;;26.92;3.75;;;29.60;27.40;;;;;;5022978;28;20140;-58
2022/06/17 08:38:04;;;;;;;21.63;3.15;;;29.70;27.40;;;;;;5023061;28;20069;-61
2022/06/17 08:40:35;;;;;;;22.85;3.55;;;29.70;28.10;;;;;;5023887;28;20069;-61
2022/06/17 08:43:19;;;;;;;30.50;4.25;;;29.60;27.70;;;;;;5021145;28;20414;-59
2022/06/17 08:46:01;;;;;;;23.08;4.90;;;29.40;27.30;;;;;;5037465;28;20164;-58
2022/06/17 08:48:52;;;;;;;30.02;4.38;;;29.50;26.90;;;;;;5022574;28;20088;-57
2022/06/17 08:51:55;;;;;;;18.35;3.92;;;29.50;26.70;;;;;;5040263;28;20258;-57
2022/06/17 08:54:28;;;;;;;25.58;4.85;;;29.50;28.10;;;;;;5024153;28;20084;-60
2022/06/17 08:57:33;;;;;;;31.92;5.63;;;29.40;27.60;;;;;;5018897;28;20140;-57
2022/06/17 09:00:09;;;;;;;28.73;5.43;;;29.40;27.40;;;;;;5018667;28;20089;-57
2022/06/17 09:02:59;;;;;;;21.20;5.20;;;29.30;27.80;;;;;;5037398;28;20104;-57
2022/06/17 09:05:59;;;;;;;29.98;5.50;;;29.30;27.90;;;;;;5012962;28;20073;-56
2022/06/17 09:09:16;;;;;;;27.88;6.18;;;29.20;28.40;;;;;;5038517;28;20099;-55
2022/06/17 09:12:00;;;;;;;30.60;6.10;;;29.10;27.90;;;;;;4983190;28;20089;-54
2022/06/17 09:14:46;;;;;;;33.47;6.40;;;29.10;27.20;;;;;;4974547;28;20134;-57
2022/06/17 09:17:43;;;;;;;35.25;6.35;;;29.10;27.50;;;;;;4999832;28;20530;-57
2022/06/17 09:20:14;;;;;;;29.98;6.47;;;29.10;27.60;;;;;;4999382;28;20491;-60
2022/06/17 09:22:47;;;;;;;24.60;6.10;;;28.90;27.10;;;;;;5001510;28;20111;-60
2022/06/17 09:25:17;;;;;;;27.52;6.40;;;28.90;27.90;;;;;;4999890;28;20508;-57
2022/06/17 09:27:48;;;;;;;26.08;5.88;;;28.80;29.00;;;;;;5000584;28;20071;-52
2022/06/17 09:30:23;;;;;;;27.45;6.00;;;28.90;28.40;;;;;;4983486;28;20083;-57
2022/06/17 09:33:12;;;;;;;30.42;5.82;;;28.80;27.60;;;;;;4958049;28;20080;-55
2022/06/17 09:35:41;;;;;;;46.50;7.90;;;28.80;28.20;;;;;;4999534;28;20114;-60
2022/06/17 09:38:17;;;;;;;54.17;10.48;;;28.70;28.70;;;;;;4997029;28;20111;-61
2022/06/17 09:40:55;;;;;;;29.90;9.93;;;28.70;28.60;;;;;;4983054;28;20076;-56
2022/06/17 09:43:52;;;;;;;42.47;9.52;;;28.60;28.70;;;;;;5001405;28;20537;-58
2022/06/17 09:46:30;;;;;;;47.92;10.38;;;28.60;29.00;;;;;;5017258;28;20545;-57
2022/06/17 09:49:03;;;;;;;44.33;9.32;;;28.50;29.20;;;;;;5016118;28;20077;-58
2022/06/17 09:52:02;;;;;;;41.22;9.70;;;28.50;29.50;;;;;;5022646;28;20068;-59
2022/06/17 09:54:55;;;;;;;37.88;8.88;;;28.50;29.20;;;;;;5018510;28;20449;-56
2022/06/17 09:57:29;;;;;;;46.80;9.88;;;28.40;28.90;;;;;;5019511;28;20543;-61
2022/06/17 10:00:07;;;;;;;45.08;10.43;;;28.30;29.10;;;;;;5019198;28;20071;-57
2022/06/17 10:02:48;;;;;;;53.92;12.40;;;28.20;30.70;;;;;;5003485;28;20084;-58
2022/06/17 10:05:39;;;;;;;59.35;11.90;;;28.30;30.10;;;;;;5019263;28;20068;-56
2022/06/17 10:08:43;;;;;;;34.83;10.25;;;28.30;30.00;;;;;;4991369;28;20584;-58
2022/06/17 10:11:34;;;;;;;46.60;10.98;;;28.20;30.20;;;;;;5020639;28;20127;-58
2022/06/17 10:14:17;;;;;;;50.35;11.07;;;28.10;29.90;;;;;;5020910;28;20626;-61
2022/06/17 10:19:50;;;;;;;42.47;10.35;;;28.10;29.70;;;;;;5022315;28;20078;-57
2022/06/17 10:22:59;;;;;;;48.47;11.10;;;28.00;30.60;;;;;;5038120;28;20073;-60
2022/06/17 10:25:32;;;;;;;39.75;10.73;;;27.80;31.00;;;;;;5020798;28;20084;-57
2022/06/17 10:28:07;;;;;;;45.70;10.43;;;27.80;30.00;;;;;;5019945;28;20134;-58
2022/06/17 10:31:08;;;;;;;35.42;9.63;;;27.80;29.00;;;;;;5018320;28;20092;-58
2022/06/17 10:33:36;;;;;;;44.75;10.23;;;27.80;28.20;;;;;;5001233;28;20080;-56
2022/06/17 10:36:05;;;;;;;50.97;9.68;;;27.70;29.00;;;;;;5035288;28;20100;-57
2022/06/17 10:38:37;;;;;;;35.95;9.55;;;27.80;29.60;;;;;;5003966;28;20418;-55
2022/06/17 10:41:05;;;;;;;29.15;7.78;;;27.80;29.90;;;;;;5036749;28;20554;-55
2022/06/17 10:43:38;;;;;;;41.45;10.05;;;27.70;27.60;;;;;;5038217;28;20088;-55
2022/06/17 10:46:05;;;;;;;38.33;9.02;;;27.60;28.80;;;;;;5034745;28;20075;-56
2022/06/17 10:48:43;;;;;;;35.50;10.32;;;27.40;29.50;;;;;;5020724;28;20100;-60
2022/06/17 10:51:10;;;;;;;42.22;10.20;;;27.40;30.20;;;;;;5016861;28;20072;-56
2022/06/17 10:53:52;;;;;;;43.78;9.20;;;27.40;30.50;;;;;;5009479;28;20069;-61
2022/06/17 10:56:20;;;;;;;41.55;8.57;;;27.30;30.00;;;;;;5021257;28;20089;-54
2022/06/17 10:59:08;;;;;;;39.03;9.85;;;27.20;30.00;;;;;;5020999;28;20112;-56
2022/06/17 11:01:52;;;;;;;36.47;9.02;;;27.20;29.80;;;;;;5021862;28;20061;-57
2022/06/17 11:04:32;;;;;;;49.90;10.00;;;27.20;29.70;;;;;;5035162;28;20087;-61
2022/06/17 11:07:04;;;;;;;57.25;9.70;;;27.20;29.50;;;;;;5020097;28;20064;-62
2022/06/17 11:09:46;;;;;;;46.33;10.07;;;27.30;30.00;;;;;;5038167;28;20527;-62
2022/06/17 11:12:33;;;;;;;38.63;9.25;;;27.30;30.70;;;;;;5020634;28;20095;-59
2022/06/17 11:15:05;;;;;;;36.78;8.98;;;27.20;31.70;;;;;;5035559;28;20496;-57
2022/06/17 11:17:46;;;;;;;35.80;9.73;;;27.20;32.30;;;;;;5021930;28;20203;-62
2022/06/17 11:20:16;;;;;;;27.63;8.90;;;27.20;32.60;;;;;;5018982;28;20172;-57
2022/06/17 11:23:02;;;;;;;34.33;9.15;;;27.30;32.70;;;;;;5037183;28;20439;-56
2022/06/17 11:25:34;;;;;;;32.40;8.95;;;27.30;32.70;;;;;;5027518;28;20198;-56
2022/06/17 11:28:25;;;;;;;23.15;8.73;;;27.20;32.80;;;;;;5035597;28;20092;-58
2022/06/17 11:30:56;;;;;;;30.60;9.10;;;27.20;33.40;;;;;;5016535;28;20085;-59
2022/06/17 11:33:22;;;;;;;24.00;9.73;;;27.00;33.40;;;;;;5035293;28;20077;-58
2022/06/17 11:36:17;;;;;;;22.27;9.50;;;27.10;34.20;;;;;;5038089;28;20474;-61
2022/06/17 11:38:44;;;;;;;31.67;11.18;;;26.90;33.50;;;;;;5028213;28;20081;-57
2022/06/17 11:41:12;;;;;;;38.45;12.23;;;27.00;33.00;;;;;;5013400;28;20566;-56
2022/06/17 11:43:41;;;;;;;34.53;12.57;;;27.10;32.80;;;;;;5040533;28;20097;-56
2022/06/17 11:46:18;;;;;;;31.23;12.95;;;27.10;32.50;;;;;;5021636;28;20079;-55
2022/06/17 11:48:53;;;;;;;33.25;12.07;;;27.20;32.30;;;;;;5038142;28;20124;-56
2022/06/17 11:51:30;;;;;;;40.70;13.00;;;27.20;32.20;;;;;;5024196;28;20078;-60
2022/06/17 11:54:01;;;;;;;44.60;13.50;;;27.20;31.90;;;;;;5023514;28;20550;-56
2022/06/17 11:56:33;;;;;;;39.15;13.63;;;27.20;31.70;;;;;;5024476;28;20184;-58
2022/06/17 11:59:14;;;;;;;39.95;13.75;;;27.20;31.90;;;;;;5026724;28;20112;-58
2022/06/17 12:01:47;;;;;;;44.20;14.15;;;27.00;31.90;;;;;;5027461;28;20089;-59
2022/06/17 12:04:45;;;;;;;46.67;12.48;;;27.10;31.90;;;;;;5038787;28;20096;-58
2022/06/17 12:07:27;;;;;;;40.55;11.40;;;27.00;31.20;;;;;;5036207;28;20143;-57
2022/06/17 12:10:32;;;;;;;39.42;10.65;;;27.00;30.50;;;;;;5039386;28;20077;-56
2022/06/17 12:13:11;;;;;;;43.03;10.40;;;27.00;30.30;;;;;;5023057;28;20119;-58
2022/06/17 12:16:11;;;;;;;37.50;10.05;;;26.90;30.10;;;;;;5037798;28;20161;-57
2022/06/17 12:18:51;;;;;;;55.97;11.82;;;26.90;30.10;;;;;;5003520;28;20105;-60
2022/06/17 12:21:39;;;;;;;40.40;8.82;;;26.90;30.00;;;;;;5022805;28;20061;-56
2022/06/17 12:24:30;;;;;;;36.67;8.50;;;26.90;29.60;;;;;;5023607;28;20081;-57
2022/06/17 12:26:59;;;;;;;37.38;7.85;;;26.80;29.50;;;;;;5037827;28;20135;-57
2022/06/17 12:29:43;;;;;;;40.33;9.52;;;26.80;29.50;;;;;;5036282;28;20140;-56
2022/06/17 12:32:40;;;;;;;53.53;10.60;;;26.70;29.50;;;;;;5005380;28;20077;-57
2022/06/17 12:35:18;;;;;;;40.95;10.52;;;26.60;29.50;;;;;;5038327;28;20108;-57
2022/06/17 12:38:12;;;;;;;53.70;10.23;;;26.60;29.50;;;;;;5039184;28;20233;-55
2022/06/17 12:40:57;;;;;;;46.53;12.48;;;26.60;29.30;;;;;;5038517;28;20097;-59
2022/06/17 12:43:42;;;;;;;46.30;10.90;;;26.50;29.30;;;;;;5028328;28;20068;-60
2022/06/17 12:46:27;;;;;;;37.70;9.68;;;26.40;28.60;;;;;;5037987;28;20069;-59
2022/06/17 12:55:03;;;;;;;37.45;9.63;;;26.20;27.60;;;;;;5024024;28;20108;-58
2022/06/17 12:57:50;;;;;;;45.33;9.80;;;26.20;27.30;;;;;;5025099;28;20160;-59
2022/06/17 13:00:39;;;;;;;;;;;26.10;27.40;;;;;;5007717;28;20073;-57
2022/06/17 13:03:08;;;;;;;33.85;9.00;;;26.00;27.80;;;;;;5017994;28;19964;-60
2022/06/17 13:05:41;;;;;;;36.30;9.57;;;26.00;28.20;;;;;;5025252;28;20073;-55
2022/06/17 13:08:17;;;;;;;41.58;9.20;;;26.20;28.60;;;;;;5039407;28;20100;-56
2022/06/17 13:11:06;;;;;;;31.55;8.35;;;26.20;29.10;;;;;;5025824;28;20080;-56
2022/06/17 13:13:47;;;;;;;31.65;9.48;;;26.10;29.80;;;;;;5019396;28;20072;-58
2022/06/17 13:16:42;;;;;;;30.83;8.52;;;26.00;30.50;;;;;;5018918;28;20999;-60
2022/06/17 13:19:18;;;;;;;28.08;9.88;;;26.10;32.10;;;;;;5019514;28;20092;-57
2022/06/17 13:21:52;;;;;;;32.85;9.30;;;26.10;32.90;;;;;;5035705;28;20080;-58
2022/06/17 13:24:29;;;;;;;38.42;8.88;;;26.20;33.50;;;;;;5029345;28;20855;-56
2022/06/17 13:27:00;;;;;;;51.05;9.52;;;26.10;34.10;;;;;;5020644;28;20419;-56
2022/06/17 13:29:35;;;;;;;29.08;9.43;;;26.10;34.00;;;;;;5018719;28;20160;-57
2022/06/17 13:32:20;;;;;;;33.08;8.88;;;26.10;34.70;;;;;;5032921;28;20099;-57
2022/06/17 13:34:51;;;;;;;25.00;8.57;;;26.10;35.20;;;;;;5015258;28;20471;-57